sensor_id;sensor_type;location;lat;lon;timestamp;pressure;altitude;pressure_sealevel;temperature;humidity
29383;BME280;16365;51.598;7.668;2022-10-18T00:00:06;101900.97;;;22.93;50.08
29383;BME280;16365;51.598;7.668;2022-10-18T00:02:32;101898.13;;;22.93;50.03
29383;BME280;16365;51.598;7.668;2022-10-18T00:05:00;101900.97;;;22.93;49.90
29383;BME280;16365;51.598;7.668;2022-10-18T00:07:26;101901.75;;;22.93;49.96
29383;BME280;16365;51.598;7.668;2022-10-18T00:09:53;101899.31;;;22.92;49.93
29383;BME280;16365;51.598;7.668;2022-10-18T00:12:19;101890.81;;;22.92;49.97
29383;BME280;16365;51.598;7.668;2022-10-18T00:14:49;101892.84;;;22.91;50.03
29383;BME280;16365;51.598;7.668;2022-10-18T00:17:16;101894.47;;;22.92;50.03
29383;BME280;16365;51.598;7.668;2022-10-18T00:19:42;101904.97;;;22.92;49.94
29383;BME280;16365;51.598;7.668;2022-10-18T00:22:09;101904.53;;;22.90;49.95
29383;BME280;16365;51.598;7.668;2022-10-18T00:24:35;101904.53;;;22.90;49.88
29383;BME280;16365;51.598;7.668;2022-10-18T00:27:02;101907.38;;;22.90;50.05
29383;BME280;16365;51.598;7.668;2022-10-18T00:29:28;101900.09;;;22.89;50.06
29383;BME280;16365;51.598;7.668;2022-10-18T00:31:54;101900.91;;;22.89;50.17
29383;BME280;16365;51.598;7.668;2022-10-18T00:34:21;101902.53;;;22.90;50.15
29383;BME280;16365;51.598;7.668;2022-10-18T00:36:47;101904.53;;;22.90;49.94
29383;BME280;16365;51.598;7.668;2022-10-18T00:39:16;101900.91;;;22.89;50.05
29383;BME280;16365;51.598;7.668;2022-10-18T00:41:43;101897.25;;;22.89;50.13
29383;BME280;16365;51.598;7.668;2022-10-18T00:46:37;101894.03;;;22.90;50.15
29383;BME280;16365;51.598;7.668;2022-10-18T00:49:05;101891.22;;;22.90;50.03
29383;BME280;16365;51.598;7.668;2022-10-18T00:51:34;101881.91;;;22.90;50.04
29383;BME280;16365;51.598;7.668;2022-10-18T00:54:01;101885.09;;;22.88;50.02
29383;BME280;16365;51.598;7.668;2022-10-18T00:56:29;101879.00;;;22.86;50.07
29383;BME280;16365;51.598;7.668;2022-10-18T00:58:55;101879.00;;;22.86;49.90
29383;BME280;16365;51.598;7.668;2022-10-18T01:01:22;101885.84;;;22.85;49.98
29383;BME280;16365;51.598;7.668;2022-10-18T01:03:53;101883.84;;;22.86;50.12
29383;BME280;16365;51.598;7.668;2022-10-18T01:06:20;101878.19;;;22.86;50.15
29383;BME280;16365;51.598;7.668;2022-10-18T01:08:53;101876.97;;;22.83;50.08
29383;BME280;16365;51.598;7.668;2022-10-18T01:11:31;101876.56;;;22.84;50.10
29383;BME280;16365;51.598;7.668;2022-10-18T01:14:21;101866.47;;;22.83;50.18
29383;BME280;16365;51.598;7.668;2022-10-18T01:17:05;101857.16;;;22.83;50.08
29383;BME280;16365;51.598;7.668;2022-10-18T01:22:26;101862.00;;;22.82;49.99
29383;BME280;16365;51.598;7.668;2022-10-18T01:24:58;101866.00;;;22.81;50.13
29383;BME280;16365;51.598;7.668;2022-10-18T01:27:34;101869.22;;;22.80;50.12
29383;BME280;16365;51.598;7.668;2022-10-18T01:32:51;101870.00;;;22.77;50.08
29383;BME280;16365;51.598;7.668;2022-10-18T01:35:26;101864.72;;;22.75;50.15
29383;BME280;16365;51.598;7.668;2022-10-18T01:37:55;101860.28;;;22.74;50.08
29383;BME280;16365;51.598;7.668;2022-10-18T01:40:22;101863.50;;;22.73;50.24
29383;BME280;16365;51.598;7.668;2022-10-18T01:42:49;101865.47;;;22.72;50.19
29383;BME280;16365;51.598;7.668;2022-10-18T01:45:16;101857.41;;;22.71;50.15
29383;BME280;16365;51.598;7.668;2022-10-18T01:47:44;101857.41;;;22.71;50.05
29383;BME280;16365;51.598;7.668;2022-10-18T01:50:12;101855.78;;;22.70;50.25
29383;BME280;16365;51.598;7.668;2022-10-18T01:52:46;101859.41;;;22.70;50.14
29383;BME280;16365;51.598;7.668;2022-10-18T01:55:13;101858.59;;;22.70;50.36
29383;BME280;16365;51.598;7.668;2022-10-18T01:57:40;101860.22;;;22.71;50.36
29383;BME280;16365;51.598;7.668;2022-10-18T02:07:33;101837.66;;;22.74;50.12
29383;BME280;16365;51.598;7.668;2022-10-18T02:10:07;101847.75;;;22.75;50.34
29383;BME280;16365;51.598;7.668;2022-10-18T02:12:36;101855.44;;;22.75;50.14
29383;BME280;16365;51.598;7.668;2022-10-18T02:15:05;101850.97;;;22.74;50.31
29383;BME280;16365;51.598;7.668;2022-10-18T02:17:32;101850.97;;;22.74;50.31
29383;BME280;16365;51.598;7.668;2022-10-18T02:19:59;101851.34;;;22.72;50.57
29383;BME280;16365;51.598;7.668;2022-10-18T02:22:28;101854.16;;;22.72;50.34
29383;BME280;16365;51.598;7.668;2022-10-18T02:24:57;101848.09;;;22.70;50.21
29383;BME280;16365;51.598;7.668;2022-10-18T02:27:25;101843.66;;;22.69;50.33
29383;BME280;16365;51.598;7.668;2022-10-18T02:29:51;101837.19;;;22.69;50.38
29383;BME280;16365;51.598;7.668;2022-10-18T02:32:20;101840.81;;;22.69;50.30
29383;BME280;16365;51.598;7.668;2022-10-18T02:35:07;101831.53;;;22.69;50.38
29383;BME280;16365;51.598;7.668;2022-10-18T02:37:37;101833.53;;;22.68;50.24
29383;BME280;16365;51.598;7.668;2022-10-18T02:40:05;101839.56;;;22.67;50.25
29383;BME280;16365;51.598;7.668;2022-10-18T02:42:35;101843.59;;;22.66;50.27
29383;BME280;16365;51.598;7.668;2022-10-18T02:45:01;101837.53;;;22.64;50.31
29383;BME280;16365;51.598;7.668;2022-10-18T02:47:28;101837.53;;;22.64;50.32
29383;BME280;16365;51.598;7.668;2022-10-18T02:49:55;101840.34;;;22.64;50.21
29383;BME280;16365;51.598;7.668;2022-10-18T02:52:22;101838.34;;;22.64;50.47
29383;BME280;16365;51.598;7.668;2022-10-18T02:54:48;101846.81;;;22.64;50.44
29383;BME280;16365;51.598;7.668;2022-10-18T02:57:15;101849.63;;;22.64;50.47
29383;BME280;16365;51.598;7.668;2022-10-18T02:59:41;101848.84;;;22.64;50.43
29383;BME280;16365;51.598;7.668;2022-10-18T03:02:07;101848.03;;;22.63;50.37
29383;BME280;16365;51.598;7.668;2022-10-18T03:04:33;101844.34;;;22.63;50.46
29383;BME280;16365;51.598;7.668;2022-10-18T03:07:00;101852.84;;;22.63;50.42
29383;BME280;16365;51.598;7.668;2022-10-18T03:09:26;101850.00;;;22.63;50.58
29383;BME280;16365;51.598;7.668;2022-10-18T03:11:52;101852.47;;;22.64;50.51
29383;BME280;16365;51.598;7.668;2022-10-18T03:14:18;101849.63;;;22.64;50.43
29383;BME280;16365;51.598;7.668;2022-10-18T03:16:45;101848.44;;;22.65;50.58
29383;BME280;16365;51.598;7.668;2022-10-18T03:19:11;101850.06;;;22.66;50.53
29383;BME280;16365;51.598;7.668;2022-10-18T03:21:38;101842.41;;;22.67;50.68
29383;BME280;16365;51.598;7.668;2022-10-18T03:24:05;101840.00;;;22.69;50.52
29383;BME280;16365;51.598;7.668;2022-10-18T03:26:31;101842.44;;;22.70;50.55
29383;BME280;16365;51.598;7.668;2022-10-18T03:28:58;101831.13;;;22.70;50.61
29383;BME280;16365;51.598;7.668;2022-10-18T03:31:24;101841.69;;;22.73;50.59
29383;BME280;16365;51.598;7.668;2022-10-18T03:33:51;101840.03;;;22.72;50.55
29383;BME280;16365;51.598;7.668;2022-10-18T03:36:17;101838.06;;;22.73;50.49
29383;BME280;16365;51.598;7.668;2022-10-18T03:38:44;101839.22;;;22.72;50.63
29383;BME280;16365;51.598;7.668;2022-10-18T03:41:10;101838.41;;;22.71;50.40
29383;BME280;16365;51.598;7.668;2022-10-18T03:43:36;101842.88;;;22.72;50.53
29383;BME280;16365;51.598;7.668;2022-10-18T03:46:02;101844.88;;;22.72;50.59
29383;BME280;16365;51.598;7.668;2022-10-18T03:48:29;101837.59;;;22.71;50.42
29383;BME280;16365;51.598;7.668;2022-10-18T03:50:56;101840.81;;;22.69;50.41
29383;BME280;16365;51.598;7.668;2022-10-18T03:53:22;101844.84;;;22.68;50.24
29383;BME280;16365;51.598;7.668;2022-10-18T03:55:49;101839.97;;;22.65;50.41
29383;BME280;16365;51.598;7.668;2022-10-18T03:58:15;101845.19;;;22.63;50.56
29383;BME280;16365;51.598;7.668;2022-10-18T04:00:42;101842.72;;;22.62;50.46
29383;BME280;16365;51.598;7.668;2022-10-18T04:03:08;101840.28;;;22.60;50.49
29383;BME280;16365;51.598;7.668;2022-10-18T04:05:35;101844.31;;;22.59;50.60
29383;BME280;16365;51.598;7.668;2022-10-18T04:08:01;101839.03;;;22.57;50.54
29383;BME280;16365;51.598;7.668;2022-10-18T04:10:29;101847.91;;;22.56;50.57
29383;BME280;16365;51.598;7.668;2022-10-18T04:12:56;101847.09;;;22.55;50.49
29383;BME280;16365;51.598;7.668;2022-10-18T04:15:22;101842.25;;;22.56;50.51
29383;BME280;16365;51.598;7.668;2022-10-18T04:17:49;101850.72;;;22.56;50.67
29383;BME280;16365;51.598;7.668;2022-10-18T04:20:15;101858.00;;;22.57;50.62
29383;BME280;16365;51.598;7.668;2022-10-18T04:22:41;101856.00;;;22.57;50.47
29383;BME280;16365;51.598;7.668;2022-10-18T04:25:08;101849.16;;;22.58;50.63
29383;BME280;16365;51.598;7.668;2022-10-18T04:27:34;101845.94;;;22.60;50.75
29383;BME280;16365;51.598;7.668;2022-10-18T04:30:01;101844.34;;;22.63;50.70
29383;BME280;16365;51.598;7.668;2022-10-18T04:32:27;101846.81;;;22.64;50.75
29383;BME280;16365;51.598;7.668;2022-10-18T04:34:54;101848.44;;;22.65;50.76
29383;BME280;16365;51.598;7.668;2022-10-18T04:37:20;101848.03;;;22.67;50.81
29383;BME280;16365;51.598;7.668;2022-10-18T04:39:46;101847.69;;;22.68;50.76
29383;BME280;16365;51.598;7.668;2022-10-18T04:42:18;101851.31;;;22.69;50.76
29383;BME280;16365;51.598;7.668;2022-10-18T04:44:45;101851.31;;;22.69;50.74
29383;BME280;16365;51.598;7.668;2022-10-18T04:47:11;101846.47;;;22.69;50.82
29383;BME280;16365;51.598;7.668;2022-10-18T04:49:38;101851.31;;;22.69;50.56
29383;BME280;16365;51.598;7.668;2022-10-18T04:52:04;101857.78;;;22.69;50.64
29383;BME280;16365;51.598;7.668;2022-10-18T04:54:31;101852.13;;;22.69;50.66
29383;BME280;16365;51.598;7.668;2022-10-18T04:56:57;101855.78;;;22.70;50.70
29383;BME280;16365;51.598;7.668;2022-10-18T04:59:23;101856.16;;;22.68;50.60
29383;BME280;16365;51.598;7.668;2022-10-18T05:01:50;101854.97;;;22.69;50.62
29383;BME280;16365;51.598;7.668;2022-10-18T05:04:16;101849.31;;;22.69;50.81
29383;BME280;16365;51.598;7.668;2022-10-18T05:06:43;101854.97;;;22.69;50.79
29383;BME280;16365;51.598;7.668;2022-10-18T05:09:10;101863.06;;;22.71;50.65
29383;BME280;16365;51.598;7.668;2022-10-18T05:11:36;101858.59;;;22.70;50.64
29383;BME280;16365;51.598;7.668;2022-10-18T05:14:03;101858.59;;;22.70;50.66
29383;BME280;16365;51.598;7.668;2022-10-18T05:16:30;101852.94;;;22.70;50.71
29383;BME280;16365;51.598;7.668;2022-10-18T05:18:58;101861.81;;;22.68;50.79
29383;BME280;16365;51.598;7.668;2022-10-18T05:21:25;101857.78;;;22.69;50.85
29383;BME280;16365;51.598;7.668;2022-10-18T05:23:53;101863.06;;;22.71;50.70
29383;BME280;16365;51.598;7.668;2022-10-18T05:26:20;101860.63;;;22.69;50.68
29383;BME280;16365;51.598;7.668;2022-10-18T05:28:47;101855.78;;;22.70;50.70
29383;BME280;16365;51.598;7.668;2022-10-18T05:31:14;101850.13;;;22.70;50.74
29383;BME280;16365;51.598;7.668;2022-10-18T05:33:40;101852.94;;;22.70;50.68
29383;BME280;16365;51.598;7.668;2022-10-18T05:36:08;101848.09;;;22.70;50.73
29383;BME280;16365;51.598;7.668;2022-10-18T05:38:39;101859.00;;;22.72;50.65
29383;BME280;16365;51.598;7.668;2022-10-18T05:41:08;101853.38;;;22.72;50.75
29383;BME280;16365;51.598;7.668;2022-10-18T05:43:34;101845.28;;;22.70;50.75
29383;BME280;16365;51.598;7.668;2022-10-18T05:46:01;101854.56;;;22.71;50.82
29383;BME280;16365;51.598;7.668;2022-10-18T05:48:27;101850.13;;;22.70;50.78
29383;BME280;16365;51.598;7.668;2022-10-18T05:50:56;101843.66;;;22.69;50.73
29383;BME280;16365;51.598;7.668;2022-10-18T05:53:22;101852.13;;;22.69;50.82
29383;BME280;16365;51.598;7.668;2022-10-18T05:56:02;101858.59;;;22.70;50.85
29383;BME280;16365;51.598;7.668;2022-10-18T05:58:28;101859.41;;;22.70;50.79
29383;BME280;16365;51.598;7.668;2022-10-18T06:00:57;101849.72;;;22.71;50.83
29383;BME280;16365;51.598;7.668;2022-10-18T06:03:23;101852.56;;;22.71;50.76
29383;BME280;16365;51.598;7.668;2022-10-18T06:05:50;101858.22;;;22.71;50.71
29383;BME280;16365;51.598;7.668;2022-10-18T06:08:16;101858.22;;;22.71;50.89
29383;BME280;16365;51.598;7.668;2022-10-18T06:10:42;101858.22;;;22.71;50.93
29383;BME280;16365;51.598;7.668;2022-10-18T06:13:09;101859.00;;;22.72;50.89
29383;BME280;16365;51.598;7.668;2022-10-18T06:15:35;101864.66;;;22.72;50.94
29383;BME280;16365;51.598;7.668;2022-10-18T06:18:01;101866.69;;;22.71;50.98
29383;BME280;16365;51.598;7.668;2022-10-18T06:20:28;101869.50;;;22.71;50.89
29383;BME280;16365;51.598;7.668;2022-10-18T06:22:55;101866.69;;;22.71;50.93
29383;BME280;16365;51.598;7.668;2022-10-18T06:25:21;101867.91;;;22.70;50.86
29383;BME280;16365;51.598;7.668;2022-10-18T06:27:48;101878.38;;;22.70;50.75
29383;BME280;16365;51.598;7.668;2022-10-18T06:30:14;101886.06;;;22.69;50.81
29383;BME280;16365;51.598;7.668;2022-10-18T06:32:40;101883.22;;;22.69;50.95
29383;BME280;16365;51.598;7.668;2022-10-18T06:35:07;101882.03;;;22.70;50.96
29383;BME280;16365;51.598;7.668;2022-10-18T06:37:33;101874.75;;;22.69;50.87
29383;BME280;16365;51.598;7.668;2022-10-18T06:40:01;101878.38;;;22.70;50.87
29383;BME280;16365;51.598;7.668;2022-10-18T06:42:27;101879.19;;;22.70;51.02
29383;BME280;16365;51.598;7.668;2022-10-18T06:44:54;101894.97;;;22.71;50.96
29383;BME280;16365;51.598;7.668;2022-10-18T06:47:20;101894.97;;;22.71;51.01
29383;BME280;16365;51.598;7.668;2022-10-18T06:49:46;101905.91;;;22.73;50.89
29383;BME280;16365;51.598;7.668;2022-10-18T06:52:12;101906.72;;;22.73;50.89
29383;BME280;16365;51.598;7.668;2022-10-18T06:54:41;101906.72;;;22.73;50.88
29383;BME280;16365;51.598;7.668;2022-10-18T06:57:10;101907.09;;;22.72;50.86
29383;BME280;16365;51.598;7.668;2022-10-18T06:59:36;101904.25;;;22.72;50.73
29383;BME280;16365;51.598;7.668;2022-10-18T07:02:03;101913.13;;;22.70;50.98
29383;BME280;16365;51.598;7.668;2022-10-18T07:04:29;101915.97;;;22.70;50.87
29383;BME280;16365;51.598;7.668;2022-10-18T07:06:56;101911.50;;;22.69;50.89
29383;BME280;16365;51.598;7.668;2022-10-18T07:09:22;101913.53;;;22.69;50.90
29383;BME280;16365;51.598;7.668;2022-10-18T07:11:48;101918.38;;;22.68;50.81
29383;BME280;16365;51.598;7.668;2022-10-18T07:14:16;101926.84;;;22.68;50.91
29383;BME280;16365;51.598;7.668;2022-10-18T07:16:42;101927.19;;;22.67;50.95
29383;BME280;16365;51.598;7.668;2022-10-18T07:19:09;101930.03;;;22.67;51.03
29383;BME280;16365;51.598;7.668;2022-10-18T07:21:35;101928.03;;;22.67;51.03
29383;BME280;16365;51.598;7.668;2022-10-18T07:24:02;101943.00;;;22.68;51.06
29383;BME280;16365;51.598;7.668;2022-10-18T07:26:29;101933.31;;;22.69;50.98
29383;BME280;16365;51.598;7.668;2022-10-18T07:29:00;101943.41;;;22.70;51.04
29383;BME280;16365;51.598;7.668;2022-10-18T07:31:27;101944.22;;;22.70;51.08
29383;BME280;16365;51.598;7.668;2022-10-18T07:33:54;101946.66;;;22.72;50.98
29383;BME280;16365;51.598;7.668;2022-10-18T07:36:20;101948.69;;;22.71;50.86
29383;BME280;16365;51.598;7.668;2022-10-18T07:38:47;101948.69;;;22.71;51.11
29383;BME280;16365;51.598;7.668;2022-10-18T07:41:13;101954.41;;;22.75;51.00
29383;BME280;16365;51.598;7.668;2022-10-18T07:43:41;101949.94;;;22.74;51.07
29383;BME280;16365;51.598;7.668;2022-10-18T07:46:08;101954.81;;;22.77;51.23
29383;BME280;16365;51.598;7.668;2022-10-18T07:48:34;101959.31;;;22.78;51.23
29383;BME280;16365;51.598;7.668;2022-10-18T07:51:01;101951.63;;;22.78;51.20
29383;BME280;16365;51.598;7.668;2022-10-18T07:53:28;101954.06;;;22.80;51.12
29383;BME280;16365;51.598;7.668;2022-10-18T07:55:58;101946.00;;;22.82;51.21
29383;BME280;16365;51.598;7.668;2022-10-18T07:58:29;101952.50;;;22.82;50.97
29383;BME280;16365;51.598;7.668;2022-10-18T08:00:56;101957.75;;;22.84;51.14
29383;BME280;16365;51.598;7.668;2022-10-18T08:03:22;101967.88;;;22.85;51.09
29383;BME280;16365;51.598;7.668;2022-10-18T08:05:52;101973.53;;;22.85;51.19
29383;BME280;16365;51.598;7.668;2022-10-18T08:08:22;101967.47;;;22.87;51.27
29383;BME280;16365;51.598;7.668;2022-10-18T08:10:49;101972.78;;;22.88;51.21
29383;BME280;16365;51.598;7.668;2022-10-18T08:13:15;101980.91;;;22.90;51.14
29383;BME280;16365;51.598;7.668;2022-10-18T08:15:42;101991.00;;;22.91;51.04
29383;BME280;16365;51.598;7.668;2022-10-18T08:18:08;101987.38;;;22.90;51.12
29383;BME280;16365;51.598;7.668;2022-10-18T08:20:35;101987.38;;;22.90;51.04
29383;BME280;16365;51.598;7.668;2022-10-18T08:23:02;101993.84;;;22.91;51.02
29383;BME280;16365;51.598;7.668;2022-10-18T08:25:29;102006.78;;;22.92;51.04
29383;BME280;16365;51.598;7.668;2022-10-18T08:27:56;102003.13;;;22.91;51.18
29383;BME280;16365;51.598;7.668;2022-10-18T08:30:22;102001.97;;;22.92;51.13
29383;BME280;16365;51.598;7.668;2022-10-18T08:32:49;102012.06;;;22.93;51.12
29383;BME280;16365;51.598;7.668;2022-10-18T08:35:15;102008.84;;;22.95;51.26
29383;BME280;16365;51.598;7.668;2022-10-18T08:37:41;102008.47;;;22.96;51.08
29383;BME280;16365;51.598;7.668;2022-10-18T08:40:09;102008.09;;;22.98;51.21
29383;BME280;16365;51.598;7.668;2022-10-18T08:45:23;102016.19;;;22.99;51.11
29383;BME280;16365;51.598;7.668;2022-10-18T08:48:07;102018.63;;;23.01;51.30
29383;BME280;16365;51.598;7.668;2022-10-18T08:50:41;102019.09;;;23.03;51.21
29383;BME280;16365;51.598;7.668;2022-10-18T08:53:23;102020.72;;;23.04;51.14
29383;BME280;16365;51.598;7.668;2022-10-18T08:55:54;102016.69;;;23.05;51.18
29383;BME280;16365;51.598;7.668;2022-10-18T08:58:28;102027.63;;;23.06;51.25
29383;BME280;16365;51.598;7.668;2022-10-18T09:01:02;102024.41;;;23.08;51.13
29383;BME280;16365;51.598;7.668;2022-10-18T09:06:29;102028.88;;;23.09;51.03
29383;BME280;16365;51.598;7.668;2022-10-18T09:09:06;102039.78;;;23.11;51.08
29383;BME280;16365;51.598;7.668;2022-10-18T09:17:22;102033.72;;;23.08;51.10
29383;BME280;16365;51.598;7.668;2022-10-18T09:20:07;102040.19;;;23.09;51.18
29383;BME280;16365;51.598;7.668;2022-10-18T09:22:42;102032.50;;;23.09;51.25
29383;BME280;16365;51.598;7.668;2022-10-18T09:27:41;102034.94;;;23.11;51.48
29383;BME280;16365;51.598;7.668;2022-10-18T09:32:58;102041.06;;;23.13;51.22
29383;BME280;16365;51.598;7.668;2022-10-18T09:35:47;102049.16;;;23.15;51.40
29383;BME280;16365;51.598;7.668;2022-10-18T09:38:16;102048.78;;;23.16;51.22
29383;BME280;16365;51.598;7.668;2022-10-18T09:40:52;102050.84;;;23.19;51.39
29383;BME280;16365;51.598;7.668;2022-10-18T09:43:24;102050.06;;;23.22;51.37
29383;BME280;16365;51.598;7.668;2022-10-18T09:45:51;102046.84;;;23.24;51.42
29383;BME280;16365;51.598;7.668;2022-10-18T09:50:47;102046.13;;;23.30;51.38
29383;BME280;16365;51.598;7.668;2022-10-18T09:53:19;102043.34;;;23.34;51.39
29383;BME280;16365;51.598;7.668;2022-10-18T09:58:23;102047.91;;;23.42;51.49
29383;BME280;16365;51.598;7.668;2022-10-18T10:00:51;102048.41;;;23.48;51.60
29383;BME280;16365;51.598;7.668;2022-10-18T10:03:19;102046.03;;;23.53;51.51
29383;BME280;16365;51.598;7.668;2022-10-18T10:05:45;102051.34;;;23.58;51.54
29383;BME280;16365;51.598;7.668;2022-10-18T10:08:12;102045.03;;;23.65;51.48
29383;BME280;16365;51.598;7.668;2022-10-18T10:10:39;102051.56;;;23.73;51.52
29383;BME280;16365;51.598;7.668;2022-10-18T10:15:32;102051.75;;;23.87;51.39
29383;BME280;16365;51.598;7.668;2022-10-18T10:18:07;102052.19;;;23.93;51.49
29383;BME280;16365;51.598;7.668;2022-10-18T10:20:43;102057.97;;;24.00;51.28
29383;BME280;16365;51.598;7.668;2022-10-18T10:23:27;102058.81;;;24.04;51.13
29383;BME280;16365;51.598;7.668;2022-10-18T10:25:58;102066.16;;;24.08;51.22
29383;BME280;16365;51.598;7.668;2022-10-18T10:28:27;102061.31;;;24.13;51.26
29383;BME280;16365;51.598;7.668;2022-10-18T10:30:54;102061.81;;;24.18;51.18
29383;BME280;16365;51.598;7.668;2022-10-18T10:33:40;102062.63;;;24.22;51.07
29383;BME280;16365;51.598;7.668;2022-10-18T10:36:18;102069.16;;;24.26;50.93
29383;BME280;16365;51.598;7.668;2022-10-18T10:38:45;102072.44;;;24.28;50.94
29383;BME280;16365;51.598;7.668;2022-10-18T10:41:27;102069.22;;;24.30;50.76
29383;BME280;16365;51.598;7.668;2022-10-18T10:43:53;102065.56;;;24.29;50.74
29383;BME280;16365;51.598;7.668;2022-10-18T10:46:19;102070.81;;;24.31;50.62
29383;BME280;16365;51.598;7.668;2022-10-18T10:48:57;102077.72;;;24.30;50.46
29383;BME280;16365;51.598;7.668;2022-10-18T10:51:45;102074.84;;;24.26;50.60
29383;BME280;16365;51.598;7.668;2022-10-18T10:54:33;102071.97;;;24.23;50.39
29383;BME280;16365;51.598;7.668;2022-10-18T10:59:41;102077.16;;;24.17;50.39
29383;BME280;16365;51.598;7.668;2022-10-18T11:04:53;102068.66;;;24.14;50.44
29383;BME280;16365;51.598;7.668;2022-10-18T11:07:29;102077.16;;;24.14;50.58
29383;BME280;16365;51.598;7.668;2022-10-18T11:15:06;102082.81;;;24.14;50.52
29383;BME280;16365;51.598;7.668;2022-10-18T11:17:47;102081.16;;;24.13;50.44
29383;BME280;16365;51.598;7.668;2022-10-18T11:20:23;102087.66;;;24.13;50.63
29383;BME280;16365;51.598;7.668;2022-10-18T11:25:22;102079.97;;;24.14;50.55
29383;BME280;16365;51.598;7.668;2022-10-18T11:27:54;102067.84;;;24.13;50.51
29383;BME280;16365;51.598;7.668;2022-10-18T11:33:25;102075.59;;;24.20;50.69
29383;BME280;16365;51.598;7.668;2022-10-18T11:42:05;102077.31;;;24.31;50.48
29383;BME280;16365;51.598;7.668;2022-10-18T11:50:14;102063.25;;;24.39;50.60
29383;BME280;16365;51.598;7.668;2022-10-18T11:52:50;102066.94;;;24.43;50.59
29383;BME280;16365;51.598;7.668;2022-10-18T11:55:36;102062.94;;;24.47;50.42
29383;BME280;16365;51.598;7.668;2022-10-18T11:58:09;102058.94;;;24.52;50.66
29383;BME280;16365;51.598;7.668;2022-10-18T12:00:49;102048.41;;;24.56;50.52
29383;BME280;16365;51.598;7.668;2022-10-18T12:03:31;102053.34;;;24.63;50.44
29383;BME280;16365;51.598;7.668;2022-10-18T12:06:01;102052.97;;;24.68;50.52
29383;BME280;16365;51.598;7.668;2022-10-18T12:08:35;102048.97;;;24.72;50.12
29383;BME280;16365;51.598;7.668;2022-10-18T12:11:23;102039.25;;;24.73;50.14
29383;BME280;16365;51.598;7.668;2022-10-18T12:13:53;102036.00;;;24.75;49.75
29383;BME280;16365;51.598;7.668;2022-10-18T12:16:23;102046.94;;;24.73;49.63
29383;BME280;16365;51.598;7.668;2022-10-18T12:19:14;102047.34;;;24.75;49.94
29383;BME280;16365;51.598;7.668;2022-10-18T12:21:50;102037.25;;;24.77;50.10
29383;BME280;16365;51.598;7.668;2022-10-18T12:24:19;102038.09;;;24.81;49.96
29383;BME280;16365;51.598;7.668;2022-10-18T12:26:48;102038.91;;;24.82;49.58
29383;BME280;16365;51.598;7.668;2022-10-18T12:29:25;102044.59;;;24.82;49.52
29383;BME280;16365;51.598;7.668;2022-10-18T12:31:54;102040.94;;;24.81;49.59
29383;BME280;16365;51.598;7.668;2022-10-18T12:39:43;102043.34;;;24.76;49.15
29383;BME280;16365;51.598;7.668;2022-10-18T12:42:32;102037.25;;;24.77;49.38
29383;BME280;16365;51.598;7.668;2022-10-18T12:45:19;102029.56;;;24.78;49.53
29383;BME280;16365;51.598;7.668;2022-10-18T12:47:47;102044.16;;;24.80;49.32
29383;BME280;16365;51.598;7.668;2022-10-18T12:50:34;102036.06;;;24.82;49.22
29383;BME280;16365;51.598;7.668;2022-10-18T12:53:05;102036.91;;;24.86;49.43
29383;BME280;16365;51.598;7.668;2022-10-18T12:55:36;102033.28;;;24.89;49.51
29383;BME280;16365;51.598;7.668;2022-10-18T13:05:52;102026.06;;;25.02;49.22
29383;BME280;16365;51.598;7.668;2022-10-18T13:16:19;102029.81;;;25.13;48.46
29383;BME280;16365;51.598;7.668;2022-10-18T13:18:54;102029.84;;;25.17;48.61
29383;BME280;16365;51.598;7.668;2022-10-18T13:21:26;102032.69;;;25.21;48.80
29383;BME280;16365;51.598;7.668;2022-10-18T13:24:00;102023.03;;;25.29;49.48
29383;BME280;16365;51.598;7.668;2022-10-18T13:31:43;102022.72;;;25.48;49.03
29383;BME280;16365;51.598;7.668;2022-10-18T13:37:04;102020.72;;;25.67;49.38
29383;BME280;16365;51.598;7.668;2022-10-18T13:39:31;102016.72;;;25.75;49.03
29383;BME280;16365;51.598;7.668;2022-10-18T13:44:26;102018.38;;;25.86;48.68
29383;BME280;16365;51.598;7.668;2022-10-18T14:04:58;102025.72;;;25.95;47.57
29383;BME280;16365;51.598;7.668;2022-10-18T14:07:47;102022.47;;;25.89;47.23
29383;BME280;16365;51.598;7.668;2022-10-18T14:10:21;102026.91;;;25.86;47.11
29383;BME280;16365;51.598;7.668;2022-10-18T14:13:13;102031.38;;;25.80;47.59
29383;BME280;16365;51.598;7.668;2022-10-18T14:15:42;102026.06;;;25.75;47.07
29383;BME280;16365;51.598;7.668;2022-10-18T14:18:12;102030.88;;;25.71;46.91
29383;BME280;16365;51.598;7.668;2022-10-18T14:20:41;102024.38;;;25.67;46.87
29383;BME280;16365;51.598;7.668;2022-10-18T14:23:34;102025.59;;;25.62;46.58
29383;BME280;16365;51.598;7.668;2022-10-18T14:26:07;102034.50;;;25.61;47.04
29383;BME280;16365;51.598;7.668;2022-10-18T14:28:33;102035.31;;;25.58;47.15
29383;BME280;16365;51.598;7.668;2022-10-18T14:31:20;102040.56;;;25.56;47.05
29383;BME280;16365;51.598;7.668;2022-10-18T14:33:52;102040.19;;;25.54;47.25
29383;BME280;16365;51.598;7.668;2022-10-18T14:36:24;102043.38;;;25.52;46.99
29383;BME280;16365;51.598;7.668;2022-10-18T14:38:58;102044.22;;;25.49;46.69
29383;BME280;16365;51.598;7.668;2022-10-18T14:41:29;102039.72;;;25.45;46.10
29383;BME280;16365;51.598;7.668;2022-10-18T14:46:49;102041.31;;;25.38;46.86
29383;BME280;16365;51.598;7.668;2022-10-18T14:49:16;102048.19;;;25.34;46.99
29383;BME280;16365;51.598;7.668;2022-10-18T14:51:44;102051.41;;;25.29;46.49
29383;BME280;16365;51.598;7.668;2022-10-18T14:54:15;102046.09;;;25.24;46.04
29383;BME280;16365;51.598;7.668;2022-10-18T14:56:42;102043.63;;;25.19;46.24
29383;BME280;16365;51.598;7.668;2022-10-18T14:59:19;102048.09;;;25.16;46.20
29383;BME280;16365;51.598;7.668;2022-10-18T15:01:57;102052.91;;;25.12;45.93